KFTY/FTY METAR and TAF weather

Enter ICAO airport designator
Station Type Date Time Source
KFTY METAR 2023/01/30 10:53 UTC NOAA

KFTY 301053Z 04004KT 5SM -RA BKN005 BKN031 09/ A3014 RMK AO2 SLP205 P0013 T0089


Station Type Date Time Source
KFTY Decoded METAR 2023/01/30 10:53 UTC NOAA

ATLANTA FULTON COUNTY AIRPORT , GA, United States (KFTY) 33-47N 84-31W 263M
Jan 30, 2023 - 05:53 AM EST / 2023.01.30 1053 UTC
Wind: from the NE (040 degrees) at 5 MPH (4 KT):0
Visibility: 5 mile(s):0
Sky conditions: mostly cloudy
Weather: light rain
Precipitation last hour: 0.13 inches
Temperature: 48 F (9 C)
Pressure (altimeter): 30.14 in. Hg (1020 hPa)
ob: KFTY 301053Z 04004KT 5SM -RA BKN005 BKN031 09/ A3014 RMK AO2 SLP205 P0013 T0089
cycle: 11

Station Type Date Time Source
KFTY TAF 2023/01/30 06:54 UTC NOAA

TAF KFTY 300551Z 3006/3106 09005KT 4SM -SHRA BR OVC005
TEMPO 3006/3010 2SM -RA BR OVC003
FM301000 09007KT 3SM -SHRA BR OVC003
FM301400 05005KT 2SM BR BKN003
FM301800 36004KT 6SM BR OVC005
FM302100 33004KT P6SM BKN004
FM310100 00000KT 6SM BR BKN003

Example: see airport list